KSTP/STP METAR and TAF weather

Enter ICAO airport designator
Station Type Date Time Source
KSTP METAR 2019/08/18 09:07 UTC NOAA

KSTP 180907Z AUTO 30008KT 3SM RA BR FEW008 BKN037 OVC060 18/17 A2965 RMK AO2 P0010 T01780172


Station Type Date Time Source
KSTP Decoded METAR 2019/08/18 09:07 UTC NOAA

Station name not available
Aug 18, 2019 - 05:07 AM EDT / 2019.08.18 0907 UTC
Wind: from the WNW (300 degrees) at 9 MPH (8 KT):0
Visibility: 3 mile(s):0
Sky conditions: overcast
Weather: rain; mist
Precipitation last hour: 0.10 inches
Temperature: 64.0 F (17.8 C)
Dew Point: 63.0 F (17.2 C)
Relative Humidity: 96%
Pressure (altimeter): 29.65 in. Hg (1004 hPa)
ob: KSTP 180907Z AUTO 30008KT 3SM RA BR FEW008 BKN037 OVC060 18/17 A2965 RMK AO2 P0010 T01780172
cycle: 9

Station Type Date Time Source
KSTP TAF 2018/02/05 20:57 UTC NOAA

TAF
AMD KSTP 051957Z 0520/0618 25007KT P6SM VCSH BKN020 OVC050
TEMPO 0520/0522 SCT020
FM052200 26006KT P6SM FEW020 BKN110
FM060100 31006KT P6SM FEW100
AMD NOT SKED

Example: see airport list